sensor_id;sensor_type;location;lat;lon;timestamp;P1;durP1;ratioP1;P2;durP2;ratioP2
27684;SDS011;46113;50.130;8.526;2023-07-02T00:02:17;3.10;;;2.17;;
27684;SDS011;46113;50.130;8.526;2023-07-02T00:04:45;6.22;;;2.08;;
27684;SDS011;46113;50.130;8.526;2023-07-02T00:07:12;3.50;;;2.00;;
27684;SDS011;46113;50.130;8.526;2023-07-02T00:09:41;4.25;;;2.17;;
27684;SDS011;46113;50.130;8.526;2023-07-02T00:12:07;2.70;;;2.40;;
27684;SDS011;46113;50.130;8.526;2023-07-02T00:14:35;3.80;;;2.20;;
27684;SDS011;46113;50.130;8.526;2023-07-02T00:17:02;2.40;;;2.20;;
27684;SDS011;46113;50.130;8.526;2023-07-02T00:19:30;2.65;;;2.10;;
27684;SDS011;46113;50.130;8.526;2023-07-02T00:21:57;2.53;;;2.33;;
27684;SDS011;46113;50.130;8.526;2023-07-02T00:24:24;3.35;;;2.47;;
27684;SDS011;46113;50.130;8.526;2023-07-02T00:26:51;3.58;;;2.33;;
27684;SDS011;46113;50.130;8.526;2023-07-02T00:29:17;3.55;;;2.72;;
27684;SDS011;46113;50.130;8.526;2023-07-02T00:31:44;3.13;;;2.30;;
27684;SDS011;46113;50.130;8.526;2023-07-02T00:34:11;2.88;;;2.33;;
27684;SDS011;46113;50.130;8.526;2023-07-02T00:36:39;2.58;;;1.98;;
27684;SDS011;46113;50.130;8.526;2023-07-02T00:39:09;2.50;;;2.30;;
27684;SDS011;46113;50.130;8.526;2023-07-02T00:41:38;2.10;;;1.90;;
27684;SDS011;46113;50.130;8.526;2023-07-02T00:44:05;3.28;;;2.15;;
27684;SDS011;46113;50.130;8.526;2023-07-02T00:46:32;6.00;;;2.50;;
27684;SDS011;46113;50.130;8.526;2023-07-02T00:48:58;4.35;;;2.35;;
27684;SDS011;46113;50.130;8.526;2023-07-02T00:51:28;2.25;;;1.77;;
27684;SDS011;46113;50.130;8.526;2023-07-02T00:53:56;3.33;;;1.83;;
27684;SDS011;46113;50.130;8.526;2023-07-02T00:56:24;5.18;;;1.98;;
27684;SDS011;46113;50.130;8.526;2023-07-02T00:58:55;4.00;;;1.77;;
27684;SDS011;46113;50.130;8.526;2023-07-02T01:04:01;5.15;;;2.03;;
27684;SDS011;46113;50.130;8.526;2023-07-02T01:06:30;7.32;;;2.20;;
27684;SDS011;46113;50.130;8.526;2023-07-02T01:09:02;3.50;;;1.98;;
27684;SDS011;46113;50.130;8.526;2023-07-02T01:11:31;3.08;;;2.10;;
27684;SDS011;46113;50.130;8.526;2023-07-02T01:16:38;4.00;;;2.67;;
27684;SDS011;46113;50.130;8.526;2023-07-02T01:19:15;3.50;;;2.28;;
27684;SDS011;46113;50.130;8.526;2023-07-02T01:21:46;3.67;;;2.05;;
27684;SDS011;46113;50.130;8.526;2023-07-02T01:24:18;3.20;;;2.55;;
27684;SDS011;46113;50.130;8.526;2023-07-02T01:26:48;1.90;;;1.80;;
27684;SDS011;46113;50.130;8.526;2023-07-02T01:29:16;2.83;;;1.98;;
27684;SDS011;46113;50.130;8.526;2023-07-02T01:31:44;2.58;;;1.88;;
27684;SDS011;46113;50.130;8.526;2023-07-02T01:34:11;3.35;;;2.05;;
27684;SDS011;46113;50.130;8.526;2023-07-02T01:36:39;5.63;;;2.20;;
27684;SDS011;46113;50.130;8.526;2023-07-02T01:39:06;3.80;;;2.00;;
27684;SDS011;46113;50.130;8.526;2023-07-02T01:41:42;1.83;;;1.58;;
27684;SDS011;46113;50.130;8.526;2023-07-02T01:44:11;2.75;;;1.90;;
27684;SDS011;46113;50.130;8.526;2023-07-02T01:46:38;4.32;;;1.70;;
27684;SDS011;46113;50.130;8.526;2023-07-02T01:49:04;2.35;;;2.13;;
27684;SDS011;46113;50.130;8.526;2023-07-02T01:51:31;2.78;;;1.73;;
27684;SDS011;46113;50.130;8.526;2023-07-02T01:53:58;1.80;;;1.70;;
27684;SDS011;46113;50.130;8.526;2023-07-02T01:56:26;2.83;;;2.53;;
27684;SDS011;46113;50.130;8.526;2023-07-02T01:58:53;3.75;;;1.92;;
27684;SDS011;46113;50.130;8.526;2023-07-02T02:01:20;5.28;;;1.55;;
27684;SDS011;46113;50.130;8.526;2023-07-02T02:03:47;1.88;;;1.60;;
27684;SDS011;46113;50.130;8.526;2023-07-02T02:06:14;1.85;;;1.70;;
27684;SDS011;46113;50.130;8.526;2023-07-02T02:08:40;1.92;;;1.50;;
27684;SDS011;46113;50.130;8.526;2023-07-02T02:11:09;2.80;;;1.48;;
27684;SDS011;46113;50.130;8.526;2023-07-02T02:13:36;2.95;;;1.85;;
27684;SDS011;46113;50.130;8.526;2023-07-02T02:16:03;2.20;;;1.65;;
27684;SDS011;46113;50.130;8.526;2023-07-02T02:18:30;2.20;;;1.25;;
27684;SDS011;46113;50.130;8.526;2023-07-02T02:20:56;2.20;;;1.20;;
27684;SDS011;46113;50.130;8.526;2023-07-02T02:23:23;4.70;;;1.38;;
27684;SDS011;46113;50.130;8.526;2023-07-02T02:25:49;1.45;;;1.25;;
27684;SDS011;46113;50.130;8.526;2023-07-02T02:28:16;4.38;;;1.50;;
27684;SDS011;46113;50.130;8.526;2023-07-02T02:30:43;3.55;;;1.23;;
27684;SDS011;46113;50.130;8.526;2023-07-02T02:33:10;4.13;;;1.63;;
27684;SDS011;46113;50.130;8.526;2023-07-02T02:35:37;4.50;;;1.30;;
27684;SDS011;46113;50.130;8.526;2023-07-02T02:38:03;4.07;;;1.38;;
27684;SDS011;46113;50.130;8.526;2023-07-02T02:40:33;3.30;;;1.38;;
27684;SDS011;46113;50.130;8.526;2023-07-02T02:43:02;2.60;;;1.05;;
27684;SDS011;46113;50.130;8.526;2023-07-02T02:45:28;2.67;;;1.35;;
27684;SDS011;46113;50.130;8.526;2023-07-02T02:47:55;5.40;;;1.42;;
27684;SDS011;46113;50.130;8.526;2023-07-02T02:50:22;2.55;;;1.35;;
27684;SDS011;46113;50.130;8.526;2023-07-02T02:52:49;5.72;;;1.55;;
27684;SDS011;46113;50.130;8.526;2023-07-02T02:55:16;3.15;;;1.33;;
27684;SDS011;46113;50.130;8.526;2023-07-02T02:57:42;4.03;;;2.20;;
27684;SDS011;46113;50.130;8.526;2023-07-02T03:00:09;3.97;;;1.10;;
27684;SDS011;46113;50.130;8.526;2023-07-02T03:02:38;4.43;;;1.70;;
27684;SDS011;46113;50.130;8.526;2023-07-02T03:05:06;4.68;;;1.35;;
27684;SDS011;46113;50.130;8.526;2023-07-02T03:07:33;4.07;;;1.42;;
27684;SDS011;46113;50.130;8.526;2023-07-02T03:09:59;2.90;;;1.27;;
27684;SDS011;46113;50.130;8.526;2023-07-02T03:12:26;3.33;;;1.45;;
27684;SDS011;46113;50.130;8.526;2023-07-02T03:14:53;1.58;;;1.20;;
27684;SDS011;46113;50.130;8.526;2023-07-02T03:17:20;1.15;;;0.98;;
27684;SDS011;46113;50.130;8.526;2023-07-02T03:19:47;2.00;;;1.35;;
27684;SDS011;46113;50.130;8.526;2023-07-02T03:22:14;3.25;;;1.27;;
27684;SDS011;46113;50.130;8.526;2023-07-02T03:24:41;6.82;;;1.38;;
27684;SDS011;46113;50.130;8.526;2023-07-02T03:27:08;7.45;;;1.58;;
27684;SDS011;46113;50.130;8.526;2023-07-02T03:29:34;3.38;;;1.40;;
27684;SDS011;46113;50.130;8.526;2023-07-02T03:32:02;1.67;;;1.27;;
27684;SDS011;46113;50.130;8.526;2023-07-02T03:34:28;4.30;;;1.45;;
27684;SDS011;46113;50.130;8.526;2023-07-02T03:36:55;3.97;;;1.10;;
27684;SDS011;46113;50.130;8.526;2023-07-02T03:39:21;1.38;;;1.10;;
27684;SDS011;46113;50.130;8.526;2023-07-02T03:41:48;3.47;;;1.55;;
27684;SDS011;46113;50.130;8.526;2023-07-02T03:44:15;2.20;;;1.30;;
27684;SDS011;46113;50.130;8.526;2023-07-02T03:46:42;2.75;;;1.63;;
27684;SDS011;46113;50.130;8.526;2023-07-02T03:49:10;2.63;;;1.08;;
27684;SDS011;46113;50.130;8.526;2023-07-02T03:51:36;3.75;;;1.48;;
27684;SDS011;46113;50.130;8.526;2023-07-02T03:54:03;5.45;;;1.65;;
27684;SDS011;46113;50.130;8.526;2023-07-02T03:56:29;5.85;;;1.65;;
27684;SDS011;46113;50.130;8.526;2023-07-02T03:58:56;4.13;;;1.90;;
27684;SDS011;46113;50.130;8.526;2023-07-02T04:01:23;4.68;;;2.53;;
27684;SDS011;46113;50.130;8.526;2023-07-02T04:03:51;4.00;;;1.67;;
27684;SDS011;46113;50.130;8.526;2023-07-02T04:06:18;5.15;;;1.92;;
27684;SDS011;46113;50.130;8.526;2023-07-02T04:08:45;5.85;;;1.77;;
27684;SDS011;46113;50.130;8.526;2023-07-02T04:11:12;3.20;;;1.80;;
27684;SDS011;46113;50.130;8.526;2023-07-02T04:13:39;4.22;;;1.33;;
27684;SDS011;46113;50.130;8.526;2023-07-02T04:16:06;4.38;;;1.55;;
27684;SDS011;46113;50.130;8.526;2023-07-02T04:18:33;2.75;;;1.52;;
27684;SDS011;46113;50.130;8.526;2023-07-02T04:21:01;6.07;;;2.33;;
27684;SDS011;46113;50.130;8.526;2023-07-02T04:23:28;2.42;;;1.38;;
27684;SDS011;46113;50.130;8.526;2023-07-02T04:25:55;3.40;;;2.10;;
27684;SDS011;46113;50.130;8.526;2023-07-02T04:28:42;6.35;;;1.63;;
27684;SDS011;46113;50.130;8.526;2023-07-02T04:31:08;6.28;;;2.20;;
27684;SDS011;46113;50.130;8.526;2023-07-02T04:33:35;2.95;;;1.70;;
27684;SDS011;46113;50.130;8.526;2023-07-02T04:36:03;4.32;;;1.77;;
27684;SDS011;46113;50.130;8.526;2023-07-02T04:38:30;8.52;;;1.77;;
27684;SDS011;46113;50.130;8.526;2023-07-02T04:40:57;8.20;;;2.33;;
27684;SDS011;46113;50.130;8.526;2023-07-02T04:43:27;3.05;;;2.03;;
27684;SDS011;46113;50.130;8.526;2023-07-02T04:45:57;6.78;;;2.20;;
27684;SDS011;46113;50.130;8.526;2023-07-02T04:48:27;4.13;;;2.00;;
27684;SDS011;46113;50.130;8.526;2023-07-02T04:50:54;3.35;;;2.13;;
27684;SDS011;46113;50.130;8.526;2023-07-02T04:53:21;7.82;;;2.45;;
27684;SDS011;46113;50.130;8.526;2023-07-02T04:55:47;10.20;;;2.20;;
27684;SDS011;46113;50.130;8.526;2023-07-02T04:58:15;5.13;;;2.42;;
27684;SDS011;46113;50.130;8.526;2023-07-02T05:00:42;7.55;;;2.80;;
27684;SDS011;46113;50.130;8.526;2023-07-02T05:03:08;6.53;;;2.95;;
27684;SDS011;46113;50.130;8.526;2023-07-02T05:05:35;7.13;;;2.15;;
27684;SDS011;46113;50.130;8.526;2023-07-02T05:08:02;5.38;;;3.35;;
27684;SDS011;46113;50.130;8.526;2023-07-02T05:10:31;6.07;;;2.85;;
27684;SDS011;46113;50.130;8.526;2023-07-02T05:12:58;4.13;;;2.30;;
27684;SDS011;46113;50.130;8.526;2023-07-02T05:15:24;6.07;;;2.58;;
27684;SDS011;46113;50.130;8.526;2023-07-02T05:17:52;4.50;;;2.85;;
27684;SDS011;46113;50.130;8.526;2023-07-02T05:20:19;5.85;;;2.67;;
27684;SDS011;46113;50.130;8.526;2023-07-02T05:22:46;5.25;;;2.55;;
27684;SDS011;46113;50.130;8.526;2023-07-02T05:25:13;5.50;;;2.20;;
27684;SDS011;46113;50.130;8.526;2023-07-02T05:27:39;4.55;;;2.30;;
27684;SDS011;46113;50.130;8.526;2023-07-02T05:30:06;5.20;;;2.85;;
27684;SDS011;46113;50.130;8.526;2023-07-02T05:32:33;4.68;;;2.72;;
27684;SDS011;46113;50.130;8.526;2023-07-02T05:35:01;5.18;;;2.70;;
27684;SDS011;46113;50.130;8.526;2023-07-02T05:37:27;6.68;;;2.97;;
27684;SDS011;46113;50.130;8.526;2023-07-02T05:39:54;5.40;;;2.97;;
27684;SDS011;46113;50.130;8.526;2023-07-02T05:42:21;8.23;;;2.42;;
27684;SDS011;46113;50.130;8.526;2023-07-02T05:44:48;6.63;;;2.92;;
27684;SDS011;46113;50.130;8.526;2023-07-02T05:47:14;8.98;;;2.95;;
27684;SDS011;46113;50.130;8.526;2023-07-02T05:49:42;4.65;;;3.08;;
27684;SDS011;46113;50.130;8.526;2023-07-02T05:52:09;6.25;;;2.67;;
27684;SDS011;46113;50.130;8.526;2023-07-02T05:54:38;7.97;;;3.40;;
27684;SDS011;46113;50.130;8.526;2023-07-02T05:57:06;9.98;;;3.65;;
27684;SDS011;46113;50.130;8.526;2023-07-02T05:59:33;4.95;;;2.95;;
27684;SDS011;46113;50.130;8.526;2023-07-02T06:02:00;7.90;;;3.25;;
27684;SDS011;46113;50.130;8.526;2023-07-02T06:04:27;7.78;;;3.10;;
27684;SDS011;46113;50.130;8.526;2023-07-02T06:06:54;6.03;;;3.30;;
27684;SDS011;46113;50.130;8.526;2023-07-02T06:09:21;14.55;;;4.00;;
27684;SDS011;46113;50.130;8.526;2023-07-02T06:11:48;8.95;;;3.47;;
27684;SDS011;46113;50.130;8.526;2023-07-02T06:14:15;8.77;;;3.20;;
27684;SDS011;46113;50.130;8.526;2023-07-02T06:16:42;10.45;;;4.22;;
27684;SDS011;46113;50.130;8.526;2023-07-02T06:19:09;9.90;;;4.22;;
27684;SDS011;46113;50.130;8.526;2023-07-02T06:21:36;8.70;;;4.47;;
27684;SDS011;46113;50.130;8.526;2023-07-02T06:24:03;7.22;;;4.38;;
27684;SDS011;46113;50.130;8.526;2023-07-02T06:26:30;11.13;;;4.22;;
27684;SDS011;46113;50.130;8.526;2023-07-02T06:28:58;12.90;;;5.15;;
27684;SDS011;46113;50.130;8.526;2023-07-02T06:31:25;14.10;;;5.28;;
27684;SDS011;46113;50.130;8.526;2023-07-02T06:33:52;7.63;;;4.85;;
27684;SDS011;46113;50.130;8.526;2023-07-02T06:36:19;10.63;;;5.10;;
27684;SDS011;46113;50.130;8.526;2023-07-02T06:38:46;8.50;;;4.53;;
27684;SDS011;46113;50.130;8.526;2023-07-02T06:41:13;11.38;;;5.15;;
27684;SDS011;46113;50.130;8.526;2023-07-02T06:43:41;8.90;;;3.88;;
27684;SDS011;46113;50.130;8.526;2023-07-02T06:46:10;9.13;;;4.53;;
27684;SDS011;46113;50.130;8.526;2023-07-02T06:48:38;9.20;;;4.15;;
27684;SDS011;46113;50.130;8.526;2023-07-02T06:51:05;8.95;;;4.68;;
27684;SDS011;46113;50.130;8.526;2023-07-02T06:53:33;12.00;;;5.20;;
27684;SDS011;46113;50.130;8.526;2023-07-02T06:56:00;10.57;;;4.95;;
27684;SDS011;46113;50.130;8.526;2023-07-02T06:58:27;7.40;;;4.03;;
27684;SDS011;46113;50.130;8.526;2023-07-02T07:00:54;9.73;;;4.85;;
27684;SDS011;46113;50.130;8.526;2023-07-02T07:03:21;8.55;;;4.60;;
27684;SDS011;46113;50.130;8.526;2023-07-02T07:05:47;8.25;;;4.75;;
27684;SDS011;46113;50.130;8.526;2023-07-02T07:08:15;22.58;;;4.60;;
27684;SDS011;46113;50.130;8.526;2023-07-02T07:10:41;9.15;;;4.97;;
27684;SDS011;46113;50.130;8.526;2023-07-02T07:13:08;10.82;;;4.10;;
27684;SDS011;46113;50.130;8.526;2023-07-02T07:15:37;10.02;;;4.43;;
27684;SDS011;46113;50.130;8.526;2023-07-02T07:18:04;9.60;;;4.50;;
27684;SDS011;46113;50.130;8.526;2023-07-02T07:20:31;7.38;;;4.07;;
27684;SDS011;46113;50.130;8.526;2023-07-02T07:22:58;9.73;;;4.72;;
27684;SDS011;46113;50.130;8.526;2023-07-02T07:25:24;11.18;;;5.03;;
27684;SDS011;46113;50.130;8.526;2023-07-02T07:27:52;6.85;;;4.53;;
27684;SDS011;46113;50.130;8.526;2023-07-02T07:30:19;10.07;;;5.10;;
27684;SDS011;46113;50.130;8.526;2023-07-02T07:32:52;11.38;;;5.10;;
27684;SDS011;46113;50.130;8.526;2023-07-02T07:35:20;7.78;;;5.05;;
27684;SDS011;46113;50.130;8.526;2023-07-02T07:37:48;9.18;;;4.68;;
27684;SDS011;46113;50.130;8.526;2023-07-02T07:40:15;8.15;;;4.25;;
27684;SDS011;46113;50.130;8.526;2023-07-02T07:42:42;11.88;;;5.65;;
27684;SDS011;46113;50.130;8.526;2023-07-02T07:45:09;11.45;;;5.20;;
27684;SDS011;46113;50.130;8.526;2023-07-02T07:47:38;11.77;;;5.93;;
27684;SDS011;46113;50.130;8.526;2023-07-02T07:50:06;18.15;;;6.05;;
27684;SDS011;46113;50.130;8.526;2023-07-02T07:52:39;11.80;;;5.03;;
27684;SDS011;46113;50.130;8.526;2023-07-02T07:55:07;9.77;;;4.82;;
27684;SDS011;46113;50.130;8.526;2023-07-02T07:57:34;9.23;;;4.97;;
27684;SDS011;46113;50.130;8.526;2023-07-02T08:00:03;10.80;;;4.68;;
27684;SDS011;46113;50.130;8.526;2023-07-02T08:02:45;11.27;;;5.38;;
27684;SDS011;46113;50.130;8.526;2023-07-02T08:05:13;9.77;;;5.85;;
27684;SDS011;46113;50.130;8.526;2023-07-02T08:07:40;8.48;;;5.05;;
27684;SDS011;46113;50.130;8.526;2023-07-02T08:10:06;10.48;;;5.38;;
27684;SDS011;46113;50.130;8.526;2023-07-02T08:12:36;12.20;;;5.45;;
27684;SDS011;46113;50.130;8.526;2023-07-02T08:15:03;12.43;;;5.72;;
27684;SDS011;46113;50.130;8.526;2023-07-02T08:17:30;11.25;;;5.13;;
27684;SDS011;46113;50.130;8.526;2023-07-02T08:19:57;13.10;;;5.57;;
27684;SDS011;46113;50.130;8.526;2023-07-02T08:22:24;10.15;;;5.68;;
27684;SDS011;46113;50.130;8.526;2023-07-02T08:24:51;9.38;;;4.65;;
27684;SDS011;46113;50.130;8.526;2023-07-02T08:27:17;7.95;;;4.90;;
27684;SDS011;46113;50.130;8.526;2023-07-02T08:29:46;10.18;;;5.68;;
27684;SDS011;46113;50.130;8.526;2023-07-02T08:32:13;12.48;;;6.25;;
27684;SDS011;46113;50.130;8.526;2023-07-02T08:34:40;10.98;;;6.05;;
27684;SDS011;46113;50.130;8.526;2023-07-02T08:37:07;8.93;;;5.38;;
27684;SDS011;46113;50.130;8.526;2023-07-02T08:39:34;12.35;;;6.90;;
27684;SDS011;46113;50.130;8.526;2023-07-02T08:42:02;10.32;;;5.80;;
27684;SDS011;46113;50.130;8.526;2023-07-02T08:44:29;9.85;;;6.10;;
27684;SDS011;46113;50.130;8.526;2023-07-02T08:46:55;11.82;;;5.88;;
27684;SDS011;46113;50.130;8.526;2023-07-02T08:49:22;10.25;;;5.85;;
27684;SDS011;46113;50.130;8.526;2023-07-02T08:51:49;12.38;;;6.88;;
27684;SDS011;46113;50.130;8.526;2023-07-02T08:54:17;11.40;;;6.10;;
27684;SDS011;46113;50.130;8.526;2023-07-02T08:56:44;15.35;;;6.93;;
27684;SDS011;46113;50.130;8.526;2023-07-02T08:59:12;15.88;;;6.68;;
27684;SDS011;46113;50.130;8.526;2023-07-02T09:06:48;10.65;;;5.32;;
27684;SDS011;46113;50.130;8.526;2023-07-02T09:09:15;10.40;;;5.63;;
27684;SDS011;46113;50.130;8.526;2023-07-02T09:11:48;13.88;;;6.18;;
27684;SDS011;46113;50.130;8.526;2023-07-02T09:14:26;13.30;;;6.32;;
27684;SDS011;46113;50.130;8.526;2023-07-02T09:17:04;14.75;;;6.65;;
27684;SDS011;46113;50.130;8.526;2023-07-02T09:19:32;9.68;;;6.55;;
27684;SDS011;46113;50.130;8.526;2023-07-02T09:22:00;12.57;;;6.55;;
27684;SDS011;46113;50.130;8.526;2023-07-02T09:24:27;9.15;;;6.57;;
27684;SDS011;46113;50.130;8.526;2023-07-02T09:26:56;11.07;;;6.47;;
27684;SDS011;46113;50.130;8.526;2023-07-02T09:29:29;13.73;;;7.13;;
27684;SDS011;46113;50.130;8.526;2023-07-02T09:31:58;14.15;;;7.18;;
27684;SDS011;46113;50.130;8.526;2023-07-02T09:34:36;8.50;;;6.18;;
27684;SDS011;46113;50.130;8.526;2023-07-02T09:37:04;12.43;;;6.43;;
27684;SDS011;46113;50.130;8.526;2023-07-02T09:39:32;14.23;;;6.82;;
27684;SDS011;46113;50.130;8.526;2023-07-02T09:42:01;16.08;;;6.00;;
27684;SDS011;46113;50.130;8.526;2023-07-02T09:44:32;14.23;;;6.82;;
27684;SDS011;46113;50.130;8.526;2023-07-02T09:49:34;12.82;;;6.47;;
27684;SDS011;46113;50.130;8.526;2023-07-02T09:52:06;13.07;;;6.38;;
27684;SDS011;46113;50.130;8.526;2023-07-02T09:54:34;12.45;;;6.28;;
27684;SDS011;46113;50.130;8.526;2023-07-02T09:57:01;13.43;;;5.55;;
27684;SDS011;46113;50.130;8.526;2023-07-02T09:59:29;13.32;;;6.30;;
27684;SDS011;46113;50.130;8.526;2023-07-02T10:01:56;13.00;;;6.78;;
27684;SDS011;46113;50.130;8.526;2023-07-02T10:04:23;11.77;;;6.15;;
27684;SDS011;46113;50.130;8.526;2023-07-02T10:06:51;9.88;;;5.63;;
27684;SDS011;46113;50.130;8.526;2023-07-02T10:09:20;14.07;;;6.78;;
27684;SDS011;46113;50.130;8.526;2023-07-02T10:12:00;10.68;;;5.75;;
27684;SDS011;46113;50.130;8.526;2023-07-02T10:14:26;13.63;;;6.53;;
27684;SDS011;46113;50.130;8.526;2023-07-02T10:16:54;10.10;;;6.07;;
27684;SDS011;46113;50.130;8.526;2023-07-02T10:19:21;13.02;;;6.70;;
27684;SDS011;46113;50.130;8.526;2023-07-02T10:22:03;8.85;;;6.05;;
27684;SDS011;46113;50.130;8.526;2023-07-02T10:24:30;11.65;;;6.28;;
27684;SDS011;46113;50.130;8.526;2023-07-02T10:26:58;11.18;;;6.90;;
27684;SDS011;46113;50.130;8.526;2023-07-02T10:29:27;8.52;;;5.38;;
27684;SDS011;46113;50.130;8.526;2023-07-02T10:31:55;11.70;;;5.85;;
27684;SDS011;46113;50.130;8.526;2023-07-02T10:34:32;10.07;;;5.47;;
27684;SDS011;46113;50.130;8.526;2023-07-02T10:37:00;10.77;;;5.60;;
27684;SDS011;46113;50.130;8.526;2023-07-02T10:39:31;9.40;;;6.10;;
27684;SDS011;46113;50.130;8.526;2023-07-02T10:42:08;10.52;;;5.68;;
27684;SDS011;46113;50.130;8.526;2023-07-02T10:44:49;13.52;;;6.13;;
27684;SDS011;46113;50.130;8.526;2023-07-02T10:47:18;9.50;;;5.25;;
27684;SDS011;46113;50.130;8.526;2023-07-02T10:49:45;13.77;;;5.70;;
27684;SDS011;46113;50.130;8.526;2023-07-02T10:52:12;9.20;;;4.70;;
27684;SDS011;46113;50.130;8.526;2023-07-02T10:54:43;8.90;;;5.07;;
27684;SDS011;46113;50.130;8.526;2023-07-02T10:57:15;9.80;;;4.80;;
27684;SDS011;46113;50.130;8.526;2023-07-02T10:59:48;10.38;;;4.75;;
27684;SDS011;46113;50.130;8.526;2023-07-02T11:02:15;7.22;;;4.55;;
27684;SDS011;46113;50.130;8.526;2023-07-02T11:04:42;8.93;;;5.07;;
27684;SDS011;46113;50.130;8.526;2023-07-02T11:07:10;12.02;;;5.55;;
27684;SDS011;46113;50.130;8.526;2023-07-02T11:09:48;9.02;;;5.32;;
27684;SDS011;46113;50.130;8.526;2023-07-02T11:12:16;9.60;;;5.22;;
27684;SDS011;46113;50.130;8.526;2023-07-02T11:14:43;8.35;;;5.28;;
27684;SDS011;46113;50.130;8.526;2023-07-02T11:17:09;9.40;;;5.20;;
27684;SDS011;46113;50.130;8.526;2023-07-02T11:19:36;7.63;;;5.30;;
27684;SDS011;46113;50.130;8.526;2023-07-02T11:22:03;13.23;;;6.78;;
27684;SDS011;46113;50.130;8.526;2023-07-02T11:24:34;23.30;;;6.55;;
27684;SDS011;46113;50.130;8.526;2023-07-02T11:27:03;13.00;;;6.20;;
27684;SDS011;46113;50.130;8.526;2023-07-02T11:29:32;12.43;;;6.05;;
27684;SDS011;46113;50.130;8.526;2023-07-02T11:32:09;48.35;;;7.78;;
27684;SDS011;46113;50.130;8.526;2023-07-02T11:34:37;54.55;;;7.88;;
27684;SDS011;46113;50.130;8.526;2023-07-02T11:37:05;16.67;;;6.28;;
27684;SDS011;46113;50.130;8.526;2023-07-02T11:39:32;52.35;;;29.50;;
27684;SDS011;46113;50.130;8.526;2023-07-02T11:41:59;50.15;;;34.78;;
27684;SDS011;46113;50.130;8.526;2023-07-02T11:44:25;14.93;;;8.38;;
27684;SDS011;46113;50.130;8.526;2023-07-02T11:46:52;29.00;;;7.93;;
27684;SDS011;46113;50.130;8.526;2023-07-02T11:49:19;46.45;;;8.80;;
27684;SDS011;46113;50.130;8.526;2023-07-02T11:51:46;56.15;;;8.70;;
27684;SDS011;46113;50.130;8.526;2023-07-02T11:54:15;84.68;;;10.20;;
27684;SDS011;46113;50.130;8.526;2023-07-02T11:56:44;14.57;;;7.95;;
27684;SDS011;46113;50.130;8.526;2023-07-02T11:59:11;14.25;;;6.40;;
27684;SDS011;46113;50.130;8.526;2023-07-02T12:01:38;13.32;;;6.30;;
27684;SDS011;46113;50.130;8.526;2023-07-02T12:04:05;9.77;;;5.28;;
27684;SDS011;46113;50.130;8.526;2023-07-02T12:06:34;9.80;;;5.75;;
27684;SDS011;46113;50.130;8.526;2023-07-02T12:09:01;10.90;;;5.38;;
27684;SDS011;46113;50.130;8.526;2023-07-02T12:11:27;11.57;;;6.20;;
27684;SDS011;46113;50.130;8.526;2023-07-02T12:13:54;9.60;;;5.20;;
27684;SDS011;46113;50.130;8.526;2023-07-02T12:16:21;12.27;;;6.20;;
27684;SDS011;46113;50.130;8.526;2023-07-02T12:18:47;11.25;;;5.70;;
27684;SDS011;46113;50.130;8.526;2023-07-02T12:21:14;14.75;;;6.10;;
27684;SDS011;46113;50.130;8.526;2023-07-02T12:23:42;14.27;;;5.30;;
27684;SDS011;46113;50.130;8.526;2023-07-02T12:26:08;13.38;;;5.88;;
27684;SDS011;46113;50.130;8.526;2023-07-02T12:55:55;11.55;;;6.55;;
27684;SDS011;46113;50.130;8.526;2023-07-02T12:58:21;17.17;;;6.45;;
27684;SDS011;46113;50.130;8.526;2023-07-02T13:00:48;9.63;;;5.45;;
27684;SDS011;46113;50.130;8.526;2023-07-02T13:03:16;10.00;;;6.03;;
27684;SDS011;46113;50.130;8.526;2023-07-02T13:05:50;12.77;;;5.63;;
27684;SDS011;46113;50.130;8.526;2023-07-02T13:08:17;10.52;;;5.72;;
27684;SDS011;46113;50.130;8.526;2023-07-02T13:10:45;13.15;;;6.32;;
27684;SDS011;46113;50.130;8.526;2023-07-02T13:13:13;14.15;;;6.80;;
27684;SDS011;46113;50.130;8.526;2023-07-02T13:16:02;13.25;;;6.40;;
27684;SDS011;46113;50.130;8.526;2023-07-02T13:18:30;9.70;;;6.20;;
27684;SDS011;46113;50.130;8.526;2023-07-02T13:21:21;13.70;;;6.80;;
27684;SDS011;46113;50.130;8.526;2023-07-02T13:26:59;9.05;;;5.95;;
27684;SDS011;46113;50.130;8.526;2023-07-02T13:29:32;11.27;;;6.70;;
27684;SDS011;46113;50.130;8.526;2023-07-02T13:32:10;12.73;;;6.55;;
27684;SDS011;46113;50.130;8.526;2023-07-02T13:34:51;11.50;;;6.72;;
27684;SDS011;46113;50.130;8.526;2023-07-02T13:37:18;13.48;;;6.85;;
27684;SDS011;46113;50.130;8.526;2023-07-02T13:39:48;11.63;;;6.13;;
27684;SDS011;46113;50.130;8.526;2023-07-02T13:42:15;12.30;;;7.43;;
27684;SDS011;46113;50.130;8.526;2023-07-02T13:44:43;11.88;;;7.07;;
27684;SDS011;46113;50.130;8.526;2023-07-02T13:47:23;14.57;;;7.55;;
27684;SDS011;46113;50.130;8.526;2023-07-02T13:50:14;14.63;;;7.38;;
27684;SDS011;46113;50.130;8.526;2023-07-02T13:54:23;14.40;;;6.38;;
27684;SDS011;46113;50.130;8.526;2023-07-02T13:57:20;11.88;;;6.47;;
27684;SDS011;46113;50.130;8.526;2023-07-02T13:59:47;15.88;;;7.28;;
27684;SDS011;46113;50.130;8.526;2023-07-02T14:02:14;15.32;;;8.02;;
27684;SDS011;46113;50.130;8.526;2023-07-02T14:04:41;13.80;;;6.55;;
27684;SDS011;46113;50.130;8.526;2023-07-02T14:07:09;13.77;;;7.28;;
27684;SDS011;46113;50.130;8.526;2023-07-02T14:09:42;12.45;;;6.47;;
27684;SDS011;46113;50.130;8.526;2023-07-02T14:12:13;9.55;;;6.32;;
27684;SDS011;46113;50.130;8.526;2023-07-02T14:14:57;12.18;;;7.13;;
27684;SDS011;46113;50.130;8.526;2023-07-02T14:17:25;17.75;;;6.43;;
27684;SDS011;46113;50.130;8.526;2023-07-02T14:20:03;13.98;;;6.85;;
27684;SDS011;46113;50.130;8.526;2023-07-02T14:22:42;18.52;;;5.78;;
27684;SDS011;46113;50.130;8.526;2023-07-02T14:25:12;14.00;;;6.05;;
27684;SDS011;46113;50.130;8.526;2023-07-02T14:28:10;10.52;;;6.90;;
27684;SDS011;46113;50.130;8.526;2023-07-02T14:31:04;10.05;;;5.65;;
27684;SDS011;46113;50.130;8.526;2023-07-02T14:36:20;13.38;;;6.03;;
27684;SDS011;46113;50.130;8.526;2023-07-02T14:38:47;13.13;;;6.25;;
27684;SDS011;46113;50.130;8.526;2023-07-02T14:44:34;11.63;;;6.07;;
27684;SDS011;46113;50.130;8.526;2023-07-02T14:47:05;9.60;;;5.70;;
27684;SDS011;46113;50.130;8.526;2023-07-02T14:49:54;10.60;;;5.82;;
27684;SDS011;46113;50.130;8.526;2023-07-02T20:10:40;12.32;;;6.72;;
27684;SDS011;46113;50.130;8.526;2023-07-02T20:13:06;18.25;;;7.30;;
27684;SDS011;46113;50.130;8.526;2023-07-02T20:15:34;12.95;;;6.68;;
27684;SDS011;46113;50.130;8.526;2023-07-02T20:18:01;13.02;;;7.28;;
27684;SDS011;46113;50.130;8.526;2023-07-02T20:20:29;14.13;;;6.88;;
27684;SDS011;46113;50.130;8.526;2023-07-02T20:22:57;13.82;;;6.93;;
27684;SDS011;46113;50.130;8.526;2023-07-02T20:25:24;16.80;;;7.32;;
27684;SDS011;46113;50.130;8.526;2023-07-02T20:27:55;16.05;;;7.25;;
27684;SDS011;46113;50.130;8.526;2023-07-02T20:30:22;16.05;;;6.55;;
27684;SDS011;46113;50.130;8.526;2023-07-02T20:32:50;12.23;;;7.63;;
27684;SDS011;46113;50.130;8.526;2023-07-02T20:35:17;15.77;;;6.78;;
27684;SDS011;46113;50.130;8.526;2023-07-02T20:37:45;12.25;;;7.75;;
27684;SDS011;46113;50.130;8.526;2023-07-02T20:40:16;12.05;;;6.68;;
27684;SDS011;46113;50.130;8.526;2023-07-02T20:42:44;16.60;;;7.43;;
27684;SDS011;46113;50.130;8.526;2023-07-02T20:45:12;18.02;;;7.10;;
27684;SDS011;46113;50.130;8.526;2023-07-02T20:47:47;14.20;;;7.28;;
27684;SDS011;46113;50.130;8.526;2023-07-02T20:50:14;20.00;;;7.45;;
27684;SDS011;46113;50.130;8.526;2023-07-02T20:52:42;13.75;;;6.82;;
27684;SDS011;46113;50.130;8.526;2023-07-02T20:55:12;11.15;;;6.95;;
27684;SDS011;46113;50.130;8.526;2023-07-02T20:57:39;13.95;;;6.82;;
27684;SDS011;46113;50.130;8.526;2023-07-02T21:00:06;16.63;;;7.35;;